sensor_id;sensor_type;location;lat;lon;timestamp;P1;durP1;ratioP1;P2;durP2;ratioP2
9884;SDS011;4981;50.966;4.842;2023-04-21T06:02:20;25.23;;;22.17;;
9884;SDS011;4981;50.966;4.842;2023-04-21T06:04:47;19.33;;;16.23;;
9884;SDS011;4981;50.966;4.842;2023-04-21T06:07:15;27.97;;;23.57;;
9884;SDS011;4981;50.966;4.842;2023-04-21T06:09:42;26.40;;;22.87;;
9884;SDS011;4981;50.966;4.842;2023-04-21T06:12:09;25.97;;;23.13;;
9884;SDS011;4981;50.966;4.842;2023-04-21T06:14:37;26.77;;;23.87;;
9884;SDS011;4981;50.966;4.842;2023-04-21T06:17:04;26.33;;;22.87;;
9884;SDS011;4981;50.966;4.842;2023-04-21T06:19:36;16.00;;;13.53;;
9884;SDS011;4981;50.966;4.842;2023-04-21T06:22:04;24.37;;;20.90;;
9884;SDS011;4981;50.966;4.842;2023-04-21T06:24:31;26.03;;;22.93;;
9884;SDS011;4981;50.966;4.842;2023-04-21T06:26:58;24.30;;;21.70;;
9884;SDS011;4981;50.966;4.842;2023-04-21T06:29:25;24.03;;;21.37;;
9884;SDS011;4981;50.966;4.842;2023-04-21T06:31:53;26.10;;;23.30;;
9884;SDS011;4981;50.966;4.842;2023-04-21T06:34:20;27.33;;;22.33;;
9884;SDS011;4981;50.966;4.842;2023-04-21T06:36:48;26.27;;;22.33;;
9884;SDS011;4981;50.966;4.842;2023-04-21T06:39:16;26.50;;;22.57;;
9884;SDS011;4981;50.966;4.842;2023-04-21T06:41:43;24.50;;;21.47;;
9884;SDS011;4981;50.966;4.842;2023-04-21T06:44:10;23.03;;;18.77;;
9884;SDS011;4981;50.966;4.842;2023-04-21T06:46:38;27.17;;;20.00;;
9884;SDS011;4981;50.966;4.842;2023-04-21T06:49:05;25.77;;;20.57;;
9884;SDS011;4981;50.966;4.842;2023-04-21T06:51:32;23.57;;;20.63;;
9884;SDS011;4981;50.966;4.842;2023-04-21T06:54:02;21.77;;;19.47;;
9884;SDS011;4981;50.966;4.842;2023-04-21T06:56:29;22.17;;;19.43;;
9884;SDS011;4981;50.966;4.842;2023-04-21T06:58:57;22.37;;;19.67;;
9884;SDS011;4981;50.966;4.842;2023-04-21T07:01:24;21.73;;;19.13;;
9884;SDS011;4981;50.966;4.842;2023-04-21T07:03:51;22.57;;;19.53;;
9884;SDS011;4981;50.966;4.842;2023-04-21T07:06:19;18.93;;;16.93;;
9884;SDS011;4981;50.966;4.842;2023-04-21T07:08:46;20.10;;;17.77;;
9884;SDS011;4981;50.966;4.842;2023-04-21T07:11:15;19.03;;;16.60;;
9884;SDS011;4981;50.966;4.842;2023-04-21T07:13:42;19.57;;;17.13;;
9884;SDS011;4981;50.966;4.842;2023-04-21T07:16:09;18.43;;;16.43;;
9884;SDS011;4981;50.966;4.842;2023-04-21T07:18:38;18.97;;;16.87;;
9884;SDS011;4981;50.966;4.842;2023-04-21T07:21:06;14.83;;;11.87;;
9884;SDS011;4981;50.966;4.842;2023-04-21T07:23:33;17.00;;;15.20;;
9884;SDS011;4981;50.966;4.842;2023-04-21T07:26:00;17.40;;;15.50;;
9884;SDS011;4981;50.966;4.842;2023-04-21T07:28:31;16.50;;;14.77;;
9884;SDS011;4981;50.966;4.842;2023-04-21T07:30:58;16.50;;;14.23;;
9884;SDS011;4981;50.966;4.842;2023-04-21T07:33:25;16.80;;;15.00;;
9884;SDS011;4981;50.966;4.842;2023-04-21T07:35:52;15.37;;;13.63;;
9884;SDS011;4981;50.966;4.842;2023-04-21T07:38:20;15.53;;;12.90;;
9884;SDS011;4981;50.966;4.842;2023-04-21T07:40:47;16.33;;;13.80;;
9884;SDS011;4981;50.966;4.842;2023-04-21T07:43:14;15.60;;;13.50;;
9884;SDS011;4981;50.966;4.842;2023-04-21T07:45:45;16.33;;;13.50;;
9884;SDS011;4981;50.966;4.842;2023-04-21T07:48:12;15.03;;;13.37;;
9884;SDS011;4981;50.966;4.842;2023-04-21T07:50:39;15.10;;;13.50;;
9884;SDS011;4981;50.966;4.842;2023-04-21T07:53:07;16.17;;;13.53;;
9884;SDS011;4981;50.966;4.842;2023-04-21T07:55:34;15.40;;;13.63;;
9884;SDS011;4981;50.966;4.842;2023-04-21T07:58:02;15.40;;;13.73;;
9884;SDS011;4981;50.966;4.842;2023-04-21T08:00:29;13.90;;;12.40;;
9884;SDS011;4981;50.966;4.842;2023-04-21T08:02:58;14.53;;;12.43;;
9884;SDS011;4981;50.966;4.842;2023-04-21T08:05:25;14.67;;;13.07;;
9884;SDS011;4981;50.966;4.842;2023-04-21T08:07:53;14.10;;;12.70;;
9884;SDS011;4981;50.966;4.842;2023-04-21T08:10:20;13.80;;;12.33;;
9884;SDS011;4981;50.966;4.842;2023-04-21T08:12:47;14.60;;;13.07;;
9884;SDS011;4981;50.966;4.842;2023-04-21T08:15:14;14.20;;;12.00;;
9884;SDS011;4981;50.966;4.842;2023-04-21T08:17:42;15.80;;;12.50;;
9884;SDS011;4981;50.966;4.842;2023-04-21T08:20:11;14.30;;;12.43;;
9884;SDS011;4981;50.966;4.842;2023-04-21T08:22:38;12.57;;;10.57;;
9884;SDS011;4981;50.966;4.842;2023-04-21T08:25:06;14.63;;;13.10;;
9884;SDS011;4981;50.966;4.842;2023-04-21T08:27:36;14.33;;;12.80;;
9884;SDS011;4981;50.966;4.842;2023-04-21T08:30:03;14.20;;;12.30;;
9884;SDS011;4981;50.966;4.842;2023-04-21T08:32:31;15.63;;;12.40;;
9884;SDS011;4981;50.966;4.842;2023-04-21T08:34:58;15.30;;;12.87;;
9884;SDS011;4981;50.966;4.842;2023-04-21T08:37:27;14.37;;;12.73;;
9884;SDS011;4981;50.966;4.842;2023-04-21T08:39:54;12.60;;;11.23;;
9884;SDS011;4981;50.966;4.842;2023-04-21T08:42:21;17.47;;;12.43;;
9884;SDS011;4981;50.966;4.842;2023-04-21T08:44:48;15.20;;;12.80;;
9884;SDS011;4981;50.966;4.842;2023-04-21T08:47:16;15.47;;;13.13;;
9884;SDS011;4981;50.966;4.842;2023-04-21T08:49:44;15.50;;;13.57;;
9884;SDS011;4981;50.966;4.842;2023-04-21T08:52:12;14.43;;;12.93;;
9884;SDS011;4981;50.966;4.842;2023-04-21T08:54:41;15.80;;;12.93;;
9884;SDS011;4981;50.966;4.842;2023-04-21T08:57:08;14.77;;;13.07;;
9884;SDS011;4981;50.966;4.842;2023-04-21T08:59:35;13.87;;;12.30;;
9884;SDS011;4981;50.966;4.842;2023-04-21T09:02:09;14.00;;;12.50;;
9884;SDS011;4981;50.966;4.842;2023-04-21T09:04:37;8.13;;;7.33;;
9884;SDS011;4981;50.966;4.842;2023-04-21T09:07:05;9.30;;;8.33;;
9884;SDS011;4981;50.966;4.842;2023-04-21T09:09:33;14.70;;;13.10;;
9884;SDS011;4981;50.966;4.842;2023-04-21T09:12:01;8.67;;;7.37;;
9884;SDS011;4981;50.966;4.842;2023-04-21T09:14:30;15.40;;;12.73;;
9884;SDS011;4981;50.966;4.842;2023-04-21T09:16:58;13.87;;;12.47;;
9884;SDS011;4981;50.966;4.842;2023-04-21T09:19:26;13.90;;;12.47;;
9884;SDS011;4981;50.966;4.842;2023-04-21T09:21:53;15.10;;;13.03;;
9884;SDS011;4981;50.966;4.842;2023-04-21T09:24:21;7.47;;;6.67;;
9884;SDS011;4981;50.966;4.842;2023-04-21T09:26:49;10.27;;;8.80;;
9884;SDS011;4981;50.966;4.842;2023-04-21T09:29:18;14.17;;;12.70;;
9884;SDS011;4981;50.966;4.842;2023-04-21T09:31:47;14.07;;;12.60;;
9884;SDS011;4981;50.966;4.842;2023-04-21T09:34:16;13.60;;;12.13;;
9884;SDS011;4981;50.966;4.842;2023-04-21T09:36:47;14.33;;;11.87;;
9884;SDS011;4981;50.966;4.842;2023-04-21T09:39:14;14.20;;;12.70;;
9884;SDS011;4981;50.966;4.842;2023-04-21T09:41:42;12.07;;;10.60;;
9884;SDS011;4981;50.966;4.842;2023-04-21T09:44:10;7.70;;;6.90;;
9884;SDS011;4981;50.966;4.842;2023-04-21T09:46:38;8.73;;;7.83;;
9884;SDS011;4981;50.966;4.842;2023-04-21T09:49:08;6.33;;;5.67;;
9884;SDS011;4981;50.966;4.842;2023-04-21T09:51:36;13.57;;;11.73;;
9884;SDS011;4981;50.966;4.842;2023-04-21T09:54:06;13.80;;;12.37;;
9884;SDS011;4981;50.966;4.842;2023-04-21T09:56:41;14.97;;;12.47;;
9884;SDS011;4981;50.966;4.842;2023-04-21T09:59:09;11.97;;;10.70;;
9884;SDS011;4981;50.966;4.842;2023-04-21T10:01:42;10.23;;;8.57;;
9884;SDS011;4981;50.966;4.842;2023-04-21T10:04:11;14.93;;;12.90;;
9884;SDS011;4981;50.966;4.842;2023-04-21T10:06:39;8.77;;;7.87;;
9884;SDS011;4981;50.966;4.842;2023-04-21T10:09:06;10.73;;;9.63;;
9884;SDS011;4981;50.966;4.842;2023-04-21T10:11:35;12.07;;;10.80;;
9884;SDS011;4981;50.966;4.842;2023-04-21T10:14:02;11.90;;;10.70;;
9884;SDS011;4981;50.966;4.842;2023-04-21T10:16:30;10.23;;;9.10;;
9884;SDS011;4981;50.966;4.842;2023-04-21T10:18:58;11.43;;;9.23;;
9884;SDS011;4981;50.966;4.842;2023-04-21T10:21:26;10.93;;;9.83;;
9884;SDS011;4981;50.966;4.842;2023-04-21T10:23:53;10.77;;;9.67;;
9884;SDS011;4981;50.966;4.842;2023-04-21T10:26:23;11.47;;;9.53;;
9884;SDS011;4981;50.966;4.842;2023-04-21T10:28:52;11.67;;;10.10;;
9884;SDS011;4981;50.966;4.842;2023-04-21T10:31:21;5.40;;;4.90;;
9884;SDS011;4981;50.966;4.842;2023-04-21T10:36:48;11.37;;;10.00;;
9884;SDS011;4981;50.966;4.842;2023-04-21T10:39:25;11.23;;;8.67;;
9884;SDS011;4981;50.966;4.842;2023-04-21T10:41:54;5.80;;;5.20;;
9884;SDS011;4981;50.966;4.842;2023-04-21T10:44:23;11.33;;;9.67;;
9884;SDS011;4981;50.966;4.842;2023-04-21T10:46:50;7.80;;;6.80;;
9884;SDS011;4981;50.966;4.842;2023-04-21T10:49:22;11.73;;;9.83;;
9884;SDS011;4981;50.966;4.842;2023-04-21T10:52:03;10.97;;;9.10;;
9884;SDS011;4981;50.966;4.842;2023-04-21T10:54:35;10.57;;;8.60;;
9884;SDS011;4981;50.966;4.842;2023-04-21T10:57:06;9.43;;;8.23;;
9884;SDS011;4981;50.966;4.842;2023-04-21T10:59:34;8.23;;;7.40;;
9884;SDS011;4981;50.966;4.842;2023-04-21T11:02:01;10.73;;;9.47;;
9884;SDS011;4981;50.966;4.842;2023-04-21T11:04:28;6.23;;;5.63;;
9884;SDS011;4981;50.966;4.842;2023-04-21T11:07:08;11.03;;;9.20;;
9884;SDS011;4981;50.966;4.842;2023-04-21T11:09:36;9.67;;;7.77;;
9884;SDS011;4981;50.966;4.842;2023-04-21T11:12:04;10.67;;;9.57;;
9884;SDS011;4981;50.966;4.842;2023-04-21T11:14:33;10.87;;;9.77;;
9884;SDS011;4981;50.966;4.842;2023-04-21T11:17:00;9.73;;;8.77;;
9884;SDS011;4981;50.966;4.842;2023-04-21T11:19:27;9.90;;;8.90;;
9884;SDS011;4981;50.966;4.842;2023-04-21T11:21:57;10.07;;;9.03;;
9884;SDS011;4981;50.966;4.842;2023-04-21T11:24:26;11.63;;;10.43;;
9884;SDS011;4981;50.966;4.842;2023-04-21T11:26:53;10.67;;;9.57;;
9884;SDS011;4981;50.966;4.842;2023-04-21T11:29:21;7.90;;;7.10;;
9884;SDS011;4981;50.966;4.842;2023-04-21T11:31:48;14.80;;;10.70;;
9884;SDS011;4981;50.966;4.842;2023-04-21T11:34:18;12.03;;;9.93;;
9884;SDS011;4981;50.966;4.842;2023-04-21T11:36:46;12.83;;;10.10;;
9884;SDS011;4981;50.966;4.842;2023-04-21T11:39:14;5.67;;;5.10;;
9884;SDS011;4981;50.966;4.842;2023-04-21T11:41:45;5.07;;;4.43;;
9884;SDS011;4981;50.966;4.842;2023-04-21T11:44:12;5.37;;;4.37;;
9884;SDS011;4981;50.966;4.842;2023-04-21T11:46:43;7.60;;;6.27;;
9884;SDS011;4981;50.966;4.842;2023-04-21T11:49:13;5.43;;;4.23;;
9884;SDS011;4981;50.966;4.842;2023-04-21T11:51:41;5.87;;;5.27;;
9884;SDS011;4981;50.966;4.842;2023-04-21T11:54:11;9.03;;;8.13;;
9884;SDS011;4981;50.966;4.842;2023-04-21T11:56:39;8.43;;;7.63;;
9884;SDS011;4981;50.966;4.842;2023-04-21T11:59:08;6.93;;;6.30;;
9884;SDS011;4981;50.966;4.842;2023-04-21T12:01:41;4.77;;;4.33;;
9884;SDS011;4981;50.966;4.842;2023-04-21T12:04:11;7.60;;;6.20;;
9884;SDS011;4981;50.966;4.842;2023-04-21T12:06:39;6.97;;;6.07;;
9884;SDS011;4981;50.966;4.842;2023-04-21T12:09:06;6.80;;;6.00;;
9884;SDS011;4981;50.966;4.842;2023-04-21T12:11:33;8.37;;;5.80;;
9884;SDS011;4981;50.966;4.842;2023-04-21T12:14:01;7.00;;;5.97;;
9884;SDS011;4981;50.966;4.842;2023-04-21T12:16:29;6.93;;;5.10;;
9884;SDS011;4981;50.966;4.842;2023-04-21T12:18:56;6.53;;;5.33;;
9884;SDS011;4981;50.966;4.842;2023-04-21T12:21:27;7.63;;;6.07;;
9884;SDS011;4981;50.966;4.842;2023-04-21T12:23:54;7.20;;;5.67;;
9884;SDS011;4981;50.966;4.842;2023-04-21T12:26:21;6.37;;;5.77;;
9884;SDS011;4981;50.966;4.842;2023-04-21T12:28:49;6.73;;;6.03;;
9884;SDS011;4981;50.966;4.842;2023-04-21T12:31:16;5.93;;;5.33;;
9884;SDS011;4981;50.966;4.842;2023-04-21T12:33:45;4.43;;;4.03;;
9884;SDS011;4981;50.966;4.842;2023-04-21T12:36:12;6.13;;;4.60;;
9884;SDS011;4981;50.966;4.842;2023-04-21T12:38:40;5.50;;;4.50;;
9884;SDS011;4981;50.966;4.842;2023-04-21T12:41:08;7.80;;;5.00;;
9884;SDS011;4981;50.966;4.842;2023-04-21T12:43:35;6.03;;;5.10;;
9884;SDS011;4981;50.966;4.842;2023-04-21T12:46:02;3.40;;;3.10;;
9884;SDS011;4981;50.966;4.842;2023-04-21T12:48:29;6.22;;;5.32;;
9884;SDS011;4981;50.966;4.842;2023-04-21T12:50:58;6.63;;;5.07;;
9884;SDS011;4981;50.966;4.842;2023-04-21T12:53:28;6.53;;;5.00;;
9884;SDS011;4981;50.966;4.842;2023-04-21T12:55:55;4.53;;;4.07;;
9884;SDS011;4981;50.966;4.842;2023-04-21T12:58:22;4.40;;;4.00;;
9884;SDS011;4981;50.966;4.842;2023-04-21T13:00:50;6.53;;;4.32;;
9884;SDS011;4981;50.966;4.842;2023-04-21T13:03:17;6.05;;;4.65;;
9884;SDS011;4981;50.966;4.842;2023-04-21T13:05:44;23.33;;;17.93;;
9884;SDS011;4981;50.966;4.842;2023-04-21T13:08:13;3.27;;;2.97;;
9884;SDS011;4981;50.966;4.842;2023-04-21T13:10:40;6.43;;;4.47;;
9884;SDS011;4981;50.966;4.842;2023-04-21T13:13:07;4.30;;;3.17;;
9884;SDS011;4981;50.966;4.842;2023-04-21T13:15:34;4.57;;;3.67;;
9884;SDS011;4981;50.966;4.842;2023-04-21T13:18:01;2.63;;;2.43;;
9884;SDS011;4981;50.966;4.842;2023-04-21T13:20:29;5.43;;;3.47;;
9884;SDS011;4981;50.966;4.842;2023-04-21T13:22:56;3.27;;;2.97;;
9884;SDS011;4981;50.966;4.842;2023-04-21T13:25:24;4.17;;;3.00;;
9884;SDS011;4981;50.966;4.842;2023-04-21T13:27:52;3.43;;;3.13;;
9884;SDS011;4981;50.966;4.842;2023-04-21T13:30:19;4.07;;;2.50;;
9884;SDS011;4981;50.966;4.842;2023-04-21T13:32:47;3.30;;;2.97;;
9884;SDS011;4981;50.966;4.842;2023-04-21T13:35:14;3.20;;;2.90;;
9884;SDS011;4981;50.966;4.842;2023-04-21T13:37:42;2.97;;;2.67;;
9884;SDS011;4981;50.966;4.842;2023-04-21T13:40:09;3.30;;;3.00;;
9884;SDS011;4981;50.966;4.842;2023-04-21T13:42:38;4.10;;;3.63;;
9884;SDS011;4981;50.966;4.842;2023-04-21T13:45:05;4.20;;;3.63;;
9884;SDS011;4981;50.966;4.842;2023-04-21T13:47:33;4.63;;;3.27;;
9884;SDS011;4981;50.966;4.842;2023-04-21T13:50:00;2.30;;;2.10;;
9884;SDS011;4981;50.966;4.842;2023-04-21T13:52:29;4.93;;;2.73;;
9884;SDS011;4981;50.966;4.842;2023-04-21T13:54:58;3.20;;;2.67;;
9884;SDS011;4981;50.966;4.842;2023-04-21T13:57:25;2.43;;;2.03;;
9884;SDS011;4981;50.966;4.842;2023-04-21T13:59:53;6.70;;;2.73;;
9884;SDS011;4981;50.966;4.842;2023-04-21T14:02:21;34.33;;;31.70;;
9884;SDS011;4981;50.966;4.842;2023-04-21T14:04:49;6.60;;;4.73;;
9884;SDS011;4981;50.966;4.842;2023-04-21T14:07:17;3.93;;;3.53;;
9884;SDS011;4981;50.966;4.842;2023-04-21T14:09:46;5.47;;;4.90;;
9884;SDS011;4981;50.966;4.842;2023-04-21T14:12:13;33.53;;;30.53;;
9884;SDS011;4981;50.966;4.842;2023-04-21T14:14:40;2.63;;;2.17;;
9884;SDS011;4981;50.966;4.842;2023-04-21T14:17:09;7.97;;;7.07;;
9884;SDS011;4981;50.966;4.842;2023-04-21T14:19:36;2.37;;;2.10;;
9884;SDS011;4981;50.966;4.842;2023-04-21T14:22:03;6.27;;;4.00;;
9884;SDS011;4981;50.966;4.842;2023-04-21T14:24:30;4.43;;;3.53;;
9884;SDS011;4981;50.966;4.842;2023-04-21T14:26:58;3.73;;;2.20;;
9884;SDS011;4981;50.966;4.842;2023-04-21T14:29:25;5.10;;;4.00;;
9884;SDS011;4981;50.966;4.842;2023-04-21T14:31:52;2.13;;;1.90;;
9884;SDS011;4981;50.966;4.842;2023-04-21T14:34:23;2.45;;;2.13;;
9884;SDS011;4981;50.966;4.842;2023-04-21T14:36:50;5.07;;;4.57;;
9884;SDS011;4981;50.966;4.842;2023-04-21T14:39:17;4.30;;;3.70;;
9884;SDS011;4981;50.966;4.842;2023-04-21T14:41:45;5.45;;;4.95;;
9884;SDS011;4981;50.966;4.842;2023-04-21T14:44:12;6.10;;;4.60;;
9884;SDS011;4981;50.966;4.842;2023-04-21T14:46:40;4.13;;;3.00;;
9884;SDS011;4981;50.966;4.842;2023-04-21T14:49:07;5.40;;;3.93;;
9884;SDS011;4981;50.966;4.842;2023-04-21T14:51:35;3.00;;;2.60;;
9884;SDS011;4981;50.966;4.842;2023-04-21T14:54:05;4.20;;;2.37;;
9884;SDS011;4981;50.966;4.842;2023-04-21T14:56:33;5.10;;;4.40;;
9884;SDS011;4981;50.966;4.842;2023-04-21T14:59:01;5.43;;;4.07;;
9884;SDS011;4981;50.966;4.842;2023-04-21T15:01:29;2.50;;;1.80;;
9884;SDS011;4981;50.966;4.842;2023-04-21T15:03:56;3.53;;;3.23;;
9884;SDS011;4981;50.966;4.842;2023-04-21T15:06:23;2.83;;;2.20;;
9884;SDS011;4981;50.966;4.842;2023-04-21T15:08:53;2.30;;;1.90;;
9884;SDS011;4981;50.966;4.842;2023-04-21T15:11:20;4.85;;;3.20;;
9884;SDS011;4981;50.966;4.842;2023-04-21T15:13:47;2.83;;;2.37;;
9884;SDS011;4981;50.966;4.842;2023-04-21T15:16:18;5.07;;;3.47;;
9884;SDS011;4981;50.966;4.842;2023-04-21T15:18:45;3.97;;;3.13;;
9884;SDS011;4981;50.966;4.842;2023-04-21T15:21:12;5.32;;;2.60;;
9884;SDS011;4981;50.966;4.842;2023-04-21T15:23:40;5.85;;;1.88;;
9884;SDS011;4981;50.966;4.842;2023-04-21T15:26:08;2.53;;;2.00;;
9884;SDS011;4981;50.966;4.842;2023-04-21T15:28:35;2.15;;;1.80;;
9884;SDS011;4981;50.966;4.842;2023-04-21T15:31:03;3.63;;;3.10;;
9884;SDS011;4981;50.966;4.842;2023-04-21T15:33:31;4.15;;;3.75;;
9884;SDS011;4981;50.966;4.842;2023-04-21T15:35:58;2.75;;;2.28;;
9884;SDS011;4981;50.966;4.842;2023-04-21T15:38:25;4.57;;;3.13;;
9884;SDS011;4981;50.966;4.842;2023-04-21T15:40:52;3.30;;;2.15;;
9884;SDS011;4981;50.966;4.842;2023-04-21T15:43:21;2.77;;;2.27;;
9884;SDS011;4981;50.966;4.842;2023-04-21T15:45:48;4.40;;;3.47;;
9884;SDS011;4981;50.966;4.842;2023-04-21T15:48:15;3.45;;;3.15;;
9884;SDS011;4981;50.966;4.842;2023-04-21T15:50:44;6.25;;;2.90;;
9884;SDS011;4981;50.966;4.842;2023-04-21T15:53:11;16.95;;;2.60;;
9884;SDS011;4981;50.966;4.842;2023-04-21T15:55:38;2.90;;;2.07;;
9884;SDS011;4981;50.966;4.842;2023-04-21T15:58:06;2.70;;;2.23;;
9884;SDS011;4981;50.966;4.842;2023-04-21T16:00:34;4.03;;;2.27;;
9884;SDS011;4981;50.966;4.842;2023-04-21T16:03:02;3.20;;;2.77;;
9884;SDS011;4981;50.966;4.842;2023-04-21T16:05:29;2.50;;;2.30;;
9884;SDS011;4981;50.966;4.842;2023-04-21T16:07:56;3.00;;;2.13;;
9884;SDS011;4981;50.966;4.842;2023-04-21T16:10:24;2.97;;;2.20;;
9884;SDS011;4981;50.966;4.842;2023-04-21T16:12:51;1.80;;;1.70;;
9884;SDS011;4981;50.966;4.842;2023-04-21T16:15:18;2.00;;;1.80;;
9884;SDS011;4981;50.966;4.842;2023-04-21T16:17:47;2.65;;;1.20;;
9884;SDS011;4981;50.966;4.842;2023-04-21T16:20:14;1.80;;;1.40;;
9884;SDS011;4981;50.966;4.842;2023-04-21T16:22:42;1.80;;;1.40;;
9884;SDS011;4981;50.966;4.842;2023-04-21T16:25:09;1.48;;;1.20;;
9884;SDS011;4981;50.966;4.842;2023-04-21T16:27:38;3.83;;;1.80;;
9884;SDS011;4981;50.966;4.842;2023-04-21T16:30:06;3.65;;;1.85;;
9884;SDS011;4981;50.966;4.842;2023-04-21T16:32:33;2.57;;;1.70;;
9884;SDS011;4981;50.966;4.842;2023-04-21T16:35:02;2.88;;;1.70;;
9884;SDS011;4981;50.966;4.842;2023-04-21T16:37:31;1.98;;;1.30;;
9884;SDS011;4981;50.966;4.842;2023-04-21T16:39:59;1.52;;;1.40;;
9884;SDS011;4981;50.966;4.842;2023-04-21T16:42:30;1.70;;;1.60;;
9884;SDS011;4981;50.966;4.842;2023-04-21T16:44:57;1.20;;;1.10;;
9884;SDS011;4981;50.966;4.842;2023-04-21T16:47:27;1.55;;;1.27;;
9884;SDS011;4981;50.966;4.842;2023-04-21T16:49:54;1.45;;;1.30;;
9884;SDS011;4981;50.966;4.842;2023-04-21T16:52:23;3.40;;;1.57;;
9884;SDS011;4981;50.966;4.842;2023-04-21T16:54:50;1.60;;;1.50;;
9884;SDS011;4981;50.966;4.842;2023-04-21T16:57:17;1.90;;;1.10;;
9884;SDS011;4981;50.966;4.842;2023-04-21T16:59:47;2.95;;;1.48;;
9884;SDS011;4981;50.966;4.842;2023-04-21T17:02:15;1.90;;;1.42;;
9884;SDS011;4981;50.966;4.842;2023-04-21T17:04:42;1.40;;;1.00;;
9884;SDS011;4981;50.966;4.842;2023-04-21T17:07:09;2.33;;;0.93;;
9884;SDS011;4981;50.966;4.842;2023-04-21T17:09:38;1.83;;;1.00;;
9884;SDS011;4981;50.966;4.842;2023-04-21T17:12:05;5.75;;;4.53;;
9884;SDS011;4981;50.966;4.842;2023-04-21T17:14:33;2.13;;;0.82;;
9884;SDS011;4981;50.966;4.842;2023-04-21T22:21:42;5.37;;;4.87;;
9884;SDS011;4981;50.966;4.842;2023-04-21T22:24:09;7.50;;;5.27;;
9884;SDS011;4981;50.966;4.842;2023-04-21T22:26:37;5.87;;;5.27;;
9884;SDS011;4981;50.966;4.842;2023-04-21T22:29:04;5.50;;;5.00;;
9884;SDS011;4981;50.966;4.842;2023-04-21T22:31:31;5.90;;;4.93;;
9884;SDS011;4981;50.966;4.842;2023-04-21T22:34:01;6.07;;;5.47;;
9884;SDS011;4981;50.966;4.842;2023-04-21T22:36:28;6.20;;;5.40;;
9884;SDS011;4981;50.966;4.842;2023-04-21T22:38:57;7.30;;;5.50;;
9884;SDS011;4981;50.966;4.842;2023-04-21T22:41:25;5.53;;;4.77;;
9884;SDS011;4981;50.966;4.842;2023-04-21T22:43:52;5.13;;;4.43;;
9884;SDS011;4981;50.966;4.842;2023-04-21T22:46:19;5.10;;;4.60;;
9884;SDS011;4981;50.966;4.842;2023-04-21T22:48:46;5.53;;;4.53;;
9884;SDS011;4981;50.966;4.842;2023-04-21T22:51:15;5.80;;;4.67;;
9884;SDS011;4981;50.966;4.842;2023-04-21T22:53:44;5.60;;;4.70;;
9884;SDS011;4981;50.966;4.842;2023-04-21T22:56:13;5.50;;;4.93;;
9884;SDS011;4981;50.966;4.842;2023-04-21T22:58:41;5.77;;;5.03;;
9884;SDS011;4981;50.966;4.842;2023-04-21T23:01:08;5.27;;;4.77;;
9884;SDS011;4981;50.966;4.842;2023-04-21T23:03:35;5.70;;;5.13;;
9884;SDS011;4981;50.966;4.842;2023-04-21T23:06:03;5.23;;;4.33;;
9884;SDS011;4981;50.966;4.842;2023-04-21T23:08:30;6.07;;;5.37;;
9884;SDS011;4981;50.966;4.842;2023-04-21T23:10:57;5.37;;;4.87;;
9884;SDS011;4981;50.966;4.842;2023-04-21T23:13:26;5.87;;;4.70;;
9884;SDS011;4981;50.966;4.842;2023-04-21T23:15:53;5.80;;;5.20;;
9884;SDS011;4981;50.966;4.842;2023-04-21T23:18:20;6.33;;;5.30;;
